Time;durP1;ratioP1;P1;durP2;ratioP2;P2;SDS_P1;SDS_P2;PMS_P1;PMS_P2;Temp;Humidity;BMP_temperature;BMP_pressure;BME280_temperature;BME280_humidity;BME280_pressure;Samples;Min_cycle;Max_cycle;Signal;HPM_P1;HPM_P2
2023/08/18 00:02:16;;;;;;;4.68;2.40;;;22.10;99.90;;;;;;4978454;28;20380;-76
2023/08/18 00:04:42;;;;;;;5.25;2.55;;;22.10;99.90;;;;;;4995690;28;20113;-75
2023/08/18 00:07:08;;;;;;;7.20;3.00;;;22.10;99.90;;;;;;4995896;28;20033;-75
2023/08/18 00:09:34;;;;;;;3.72;2.38;;;22.10;99.90;;;;;;4977275;28;20072;-75
2023/08/18 00:11:59;;;;;;;5.78;2.80;;;22.10;99.90;;;;;;4995009;28;20022;-74
2023/08/18 00:14:37;;;;;;;6.65;3.20;;;22.00;99.90;;;;;;4991483;28;20073;-74
2023/08/18 00:17:03;;;;;;;3.80;2.50;;;22.00;99.90;;;;;;4995106;28;20065;-74
2023/08/18 00:19:37;;;;;;;7.68;2.50;;;22.00;99.90;;;;;;4997392;28;20054;-74
2023/08/18 00:22:03;;;;;;;6.07;2.38;;;22.00;99.90;;;;;;4978235;28;20033;-76
2023/08/18 00:24:32;;;;;;;4.00;2.17;;;22.00;99.90;;;;;;4973725;28;20041;-75
2023/08/18 00:26:58;;;;;;;3.40;2.35;;;22.00;99.90;;;;;;4994957;28;20037;-74
2023/08/18 00:29:29;;;;;;;4.13;2.42;;;22.00;99.90;;;;;;5003633;28;20018;-75
2023/08/18 00:31:55;;;;;;;5.03;2.78;;;22.00;99.90;;;;;;4996889;28;20026;-75
2023/08/18 00:34:27;;;;;;;5.53;2.55;;;21.90;99.90;;;;;;4995327;28;20041;-75
2023/08/18 00:36:53;;;;;;;4.43;2.70;;;21.90;99.90;;;;;;4994365;28;20068;-75
2023/08/18 00:39:18;;;;;;;4.95;2.88;;;21.90;99.90;;;;;;4980941;28;20093;-74
2023/08/18 00:41:44;;;;;;;6.18;2.90;;;21.90;99.90;;;;;;4993473;28;20053;-75
2023/08/18 00:44:15;;;;;;;5.30;2.88;;;21.80;99.90;;;;;;4979301;28;20034;-76
2023/08/18 00:46:43;;;;;;;4.53;2.70;;;21.70;99.90;;;;;;4993536;28;20432;-75
2023/08/18 00:49:18;;;;;;;7.72;2.40;;;21.70;99.90;;;;;;4986492;28;20508;-76
2023/08/18 00:51:47;;;;;;;6.55;2.97;;;21.60;99.90;;;;;;5000170;28;20029;-76
2023/08/18 00:54:17;;;;;;;5.18;2.90;;;21.60;99.90;;;;;;4991455;28;20041;-74
2023/08/18 00:56:46;;;;;;;4.47;2.33;;;21.60;99.90;;;;;;4990667;28;20030;-75
2023/08/18 00:59:15;;;;;;;6.93;2.58;;;21.50;99.90;;;;;;4994099;28;20563;-75
2023/08/18 01:01:48;;;;;;;3.92;2.75;;;21.50;99.90;;;;;;4995220;28;20500;-76
2023/08/18 01:04:20;;;;;;;4.57;3.25;;;21.50;99.90;;;;;;4983278;28;20440;-76
2023/08/18 01:06:45;;;;;;;6.18;2.50;;;21.50;99.90;;;;;;4988110;28;20033;-76
2023/08/18 01:09:24;;;;;;;5.20;2.45;;;21.50;99.90;;;;;;4990007;28;20026;-76
2023/08/18 01:12:18;;;;;;;6.80;2.90;;;21.50;99.90;;;;;;4992332;28;20025;-74
2023/08/18 01:14:56;;;;;;;6.53;2.78;;;21.40;99.90;;;;;;4988178;28;20037;-75
2023/08/18 01:17:37;;;;;;;4.13;2.63;;;21.40;99.90;;;;;;4984170;28;20040;-75
2023/08/18 01:20:06;;;;;;;3.28;2.75;;;21.40;99.90;;;;;;4988664;28;20030;-76
2023/08/18 01:22:39;;;;;;;4.72;2.65;;;21.30;99.90;;;;;;4976373;28;20480;-75
2023/08/18 01:25:11;;;;;;;4.68;2.53;;;21.30;99.90;;;;;;4996303;28;20022;-74
2023/08/18 01:27:40;;;;;;;5.90;2.95;;;21.30;99.90;;;;;;4993510;28;20027;-75
2023/08/18 01:30:06;;;;;;;6.18;2.92;;;21.20;99.90;;;;;;4988743;28;20513;-76
2023/08/18 01:32:57;;;;;;;6.05;2.90;;;21.20;99.90;;;;;;4993320;28;20023;-76
2023/08/18 01:35:27;;;;;;;4.63;2.80;;;21.20;99.90;;;;;;4989365;28;20073;-75
2023/08/18 01:37:54;;;;;;;5.63;3.42;;;21.20;99.90;;;;;;4986068;28;20102;-74
2023/08/18 01:40:23;;;;;;;5.10;3.58;;;21.10;99.90;;;;;;4986816;28;20030;-76
2023/08/18 01:42:52;;;;;;;6.18;3.28;;;21.10;99.90;;;;;;4991050;28;20172;-76
2023/08/18 01:45:21;;;;;;;5.80;3.40;;;21.10;99.90;;;;;;4968022;28;20057;-76
2023/08/18 01:47:48;;;;;;;5.43;3.17;;;21.00;99.90;;;;;;4987305;28;20029;-76
2023/08/18 01:50:13;;;;;;;5.38;3.40;;;21.00;99.90;;;;;;4993561;28;20062;-75
2023/08/18 01:52:42;;;;;;;4.57;3.15;;;20.90;99.90;;;;;;4986405;28;20030;-75
2023/08/18 01:55:16;;;;;;;6.68;3.65;;;20.90;99.90;;;;;;4988920;28;20359;-76
2023/08/18 01:57:44;;;;;;;8.77;3.30;;;20.80;99.90;;;;;;4987739;28;20057;-75
2023/08/18 02:00:13;;;;;;;6.72;2.95;;;20.80;99.90;;;;;;4972227;28;20045;-74
2023/08/18 02:02:39;;;;;;;6.32;3.33;;;20.80;99.90;;;;;;4985894;28;20034;-75
2023/08/18 02:05:05;;;;;;;9.48;3.15;;;20.80;99.90;;;;;;4985369;28;20492;-75
2023/08/18 02:07:36;;;;;;;6.07;2.70;;;20.70;99.90;;;;;;4983093;28;20476;-74
2023/08/18 02:10:02;;;;;;;6.72;3.47;;;20.70;99.90;;;;;;4971841;28;20026;-75
2023/08/18 02:12:28;;;;;;;8.27;3.55;;;20.60;99.90;;;;;;4993316;28;20506;-75
2023/08/18 02:14:53;;;;;;;4.65;2.78;;;20.60;99.90;;;;;;4993160;28;20042;-75
2023/08/18 02:17:19;;;;;;;6.88;2.97;;;20.60;99.90;;;;;;4993145;28;20437;-74
2023/08/18 02:19:45;;;;;;;5.82;2.50;;;20.50;99.90;;;;;;4993164;28;20109;-74
2023/08/18 02:22:10;;;;;;;4.13;2.70;;;20.50;99.90;;;;;;4975640;28;20027;-74
2023/08/18 02:24:46;;;;;;;3.58;3.05;;;20.50;99.90;;;;;;4992266;28;20031;-75
2023/08/18 02:27:21;;;;;;;6.38;2.70;;;20.50;99.90;;;;;;4971488;28;20026;-76
2023/08/18 02:29:51;;;;;;;5.22;3.08;;;20.40;99.90;;;;;;4971021;28;20026;-76
2023/08/18 02:32:18;;;;;;;5.43;2.53;;;20.40;99.90;;;;;;4969430;28;20038;-76
2023/08/18 02:34:45;;;;;;;6.03;2.83;;;20.40;99.90;;;;;;4992760;28;20623;-74
2023/08/18 02:37:11;;;;;;;6.07;2.60;;;20.40;99.90;;;;;;4992554;28;20022;-74
2023/08/18 02:39:42;;;;;;;5.95;3.45;;;20.40;99.90;;;;;;4992112;28;20027;-74
2023/08/18 02:42:08;;;;;;;5.00;3.05;;;20.40;99.90;;;;;;4973396;28;20030;-74
2023/08/18 02:44:46;;;;;;;3.88;2.53;;;20.40;99.90;;;;;;4986013;28;21294;-78
2023/08/18 02:47:13;;;;;;;4.63;2.40;;;20.40;99.90;;;;;;4989897;28;20396;-75
2023/08/18 02:49:38;;;;;;;5.00;2.30;;;20.40;99.90;;;;;;4973035;28;20030;-76
2023/08/18 02:52:05;;;;;;;6.28;2.65;;;20.30;99.90;;;;;;4969171;28;20064;-74
2023/08/18 02:54:31;;;;;;;4.47;2.42;;;20.30;99.90;;;;;;4964882;28;20058;-74
2023/08/18 02:56:57;;;;;;;3.28;2.28;;;20.30;99.90;;;;;;4991198;28;20034;-73
2023/08/18 02:59:23;;;;;;;7.20;3.00;;;20.20;99.90;;;;;;4980711;28;20019;-74
2023/08/18 03:01:49;;;;;;;3.22;2.45;;;20.20;99.90;;;;;;4985257;28;20805;-74
2023/08/18 03:04:14;;;;;;;5.82;2.92;;;20.20;99.90;;;;;;4983375;28;20477;-74
2023/08/18 03:06:43;;;;;;;5.95;2.67;;;20.10;99.90;;;;;;4970446;28;20133;-75
2023/08/18 03:09:09;;;;;;;4.88;2.38;;;20.10;99.90;;;;;;4990400;28;20030;-74
2023/08/18 03:11:34;;;;;;;5.43;2.75;;;20.10;99.90;;;;;;4988271;28;20030;-74
2023/08/18 03:14:00;;;;;;;3.55;2.60;;;20.10;99.90;;;;;;4966233;28;20485;-74
2023/08/18 03:16:25;;;;;;;3.60;2.33;;;20.10;99.90;;;;;;4975683;28;20122;-74
2023/08/18 03:18:54;;;;;;;4.65;2.22;;;20.00;99.90;;;;;;4990804;28;21018;-74
2023/08/18 03:21:20;;;;;;;3.20;2.20;;;20.00;99.90;;;;;;4994284;28;20034;-74
2023/08/18 03:23:45;;;;;;;4.30;2.50;;;19.90;99.90;;;;;;4996892;28;20940;-74
2023/08/18 03:26:11;;;;;;;5.00;2.28;;;19.90;99.90;;;;;;4996432;28;20027;-74
2023/08/18 03:28:37;;;;;;;5.72;2.83;;;20.00;99.90;;;;;;4987653;28;20105;-74
2023/08/18 03:31:08;;;;;;;7.28;2.88;;;19.90;99.90;;;;;;4993499;28;20032;-74
2023/08/18 03:33:37;;;;;;;6.00;2.42;;;19.90;99.90;;;;;;4997507;28;20018;-74
2023/08/18 03:36:03;;;;;;;5.35;2.60;;;19.90;99.90;;;;;;4977446;28;20496;-74
2023/08/18 03:38:31;;;;;;;3.35;1.98;;;19.90;99.90;;;;;;4975348;28;20053;-74
2023/08/18 03:40:59;;;;;;;5.65;2.45;;;19.90;99.90;;;;;;4992960;28;20026;-73
2023/08/18 03:43:25;;;;;;;4.85;2.10;;;20.00;99.90;;;;;;4992649;28;20006;-74
2023/08/18 03:45:50;;;;;;;3.90;2.25;;;19.90;99.90;;;;;;4991404;28;20034;-74
2023/08/18 03:48:16;;;;;;;5.38;2.25;;;19.90;99.90;;;;;;4992030;28;20045;-73
2023/08/18 03:50:42;;;;;;;3.30;2.20;;;19.90;99.90;;;;;;4987949;28;20387;-74
2023/08/18 03:53:07;;;;;;;5.93;2.60;;;19.90;99.90;;;;;;4991067;28;20114;-74
2023/08/18 03:55:35;;;;;;;4.15;2.63;;;19.90;99.90;;;;;;4988692;28;20038;-73
2023/08/18 03:58:04;;;;;;;5.78;2.70;;;19.90;99.90;;;;;;4994409;28;20030;-74
2023/08/18 04:00:36;;;;;;;4.82;1.90;;;19.90;99.90;;;;;;4975162;28;20038;-74
2023/08/18 04:03:03;;;;;;;7.00;3.05;;;19.80;99.90;;;;;;4976559;28;20038;-76
2023/08/18 04:05:44;;;;;;;7.88;2.85;;;19.90;99.90;;;;;;4990459;28;20369;-74
2023/08/18 04:08:16;;;;;;;3.92;2.00;;;19.80;99.90;;;;;;4994831;28;20035;-75
2023/08/18 04:10:51;;;;;;;8.02;2.47;;;19.80;99.90;;;;;;4993103;28;20035;-74
2023/08/18 04:13:20;;;;;;;6.13;2.58;;;19.70;99.90;;;;;;4993360;28;20022;-75
2023/08/18 04:15:46;;;;;;;6.40;2.97;;;19.70;99.90;;;;;;4991946;28;20019;-74
2023/08/18 04:18:14;;;;;;;4.50;2.70;;;19.80;99.90;;;;;;4990289;28;20163;-75
2023/08/18 04:20:40;;;;;;;4.40;2.92;;;19.70;99.90;;;;;;4973981;28;20066;-75
2023/08/18 04:23:09;;;;;;;6.53;2.33;;;19.80;99.90;;;;;;4992386;28;20062;-75
2023/08/18 04:25:44;;;;;;;7.43;2.97;;;19.80;99.90;;;;;;4988009;28;20018;-75
2023/08/18 04:28:10;;;;;;;3.53;2.42;;;19.80;99.90;;;;;;4992072;28;20053;-75
2023/08/18 04:30:36;;;;;;;3.67;2.33;;;19.80;99.90;;;;;;4990241;28;20469;-75
2023/08/18 04:33:08;;;;;;;6.75;2.72;;;19.70;99.90;;;;;;4994239;28;20535;-75
2023/08/18 04:35:33;;;;;;;3.38;2.42;;;19.70;99.90;;;;;;4972966;28;20031;-76
2023/08/18 04:38:08;;;;;;;5.95;2.55;;;19.70;99.90;;;;;;4990851;28;20033;-75
2023/08/18 04:40:34;;;;;;;5.95;3.20;;;19.70;99.90;;;;;;4974610;28;20105;-75
2023/08/18 04:42:59;;;;;;;3.85;2.35;;;19.70;99.90;;;;;;4989097;28;20133;-75
2023/08/18 04:45:25;;;;;;;7.05;2.55;;;19.70;99.90;;;;;;4989931;28;20034;-75
2023/08/18 04:47:50;;;;;;;5.15;2.42;;;19.70;99.90;;;;;;4994303;28;20042;-77
2023/08/18 04:50:16;;;;;;;5.05;2.60;;;19.60;99.90;;;;;;4997183;28;20486;-75
2023/08/18 04:52:41;;;;;;;6.50;2.88;;;19.60;99.90;;;;;;4984839;28;20015;-75
2023/08/18 04:55:10;;;;;;;4.25;2.28;;;19.60;99.90;;;;;;4986014;28;20041;-76
2023/08/18 04:57:36;;;;;;;9.25;3.25;;;19.60;99.90;;;;;;4992703;28;20488;-75
2023/08/18 05:00:02;;;;;;;6.18;3.03;;;19.60;99.90;;;;;;4991350;28;20026;-75
2023/08/18 05:02:28;;;;;;;4.05;2.63;;;19.60;99.90;;;;;;4992851;28;20029;-75
2023/08/18 05:04:54;;;;;;;7.90;3.05;;;19.60;99.90;;;;;;4989080;28;20030;-76
2023/08/18 05:07:22;;;;;;;5.75;3.53;;;19.60;99.90;;;;;;4989970;28;21237;-74
2023/08/18 05:09:56;;;;;;;9.60;4.03;;;19.60;99.90;;;;;;4982713;28;20022;-73
2023/08/18 05:12:25;;;;;;;9.70;4.47;;;19.50;99.90;;;;;;4985129;28;20027;-73
2023/08/18 05:14:51;;;;;;;6.80;3.38;;;19.50;99.90;;;;;;4986735;28;20034;-74
2023/08/18 05:17:17;;;;;;;6.32;3.90;;;19.60;99.90;;;;;;4998060;23;20530;-70
2023/08/18 05:19:45;;;;;;;6.45;3.58;;;19.60;99.90;;;;;;4976118;28;20039;-70
2023/08/18 05:22:11;;;;;;;8.85;3.72;;;19.60;99.90;;;;;;4979251;28;20369;-70
2023/08/18 05:24:42;;;;;;;8.05;4.43;;;19.70;99.90;;;;;;4957081;28;20045;-71
2023/08/18 05:27:08;;;;;;;7.38;4.10;;;19.80;99.90;;;;;;4981174;28;20466;-72
2023/08/18 05:29:33;;;;;;;7.57;4.18;;;19.80;99.90;;;;;;4985638;28;20085;-73
2023/08/18 05:31:59;;;;;;;9.07;4.15;;;19.90;99.90;;;;;;4990177;28;20026;-77
2023/08/18 05:34:27;;;;;;;8.32;3.67;;;20.00;99.90;;;;;;4977506;28;25663;-76
2023/08/18 05:36:54;;;;;;;10.23;4.13;;;20.10;99.90;;;;;;4977521;28;20080;-75
2023/08/18 05:39:19;;;;;;;6.93;3.40;;;20.20;99.90;;;;;;4981520;28;20432;-76
2023/08/18 05:41:48;;;;;;;6.20;3.85;;;20.30;99.90;;;;;;4983347;28;20022;-76
2023/08/18 05:44:13;;;;;;;7.15;3.53;;;20.30;99.90;;;;;;4976228;28;20038;-76
2023/08/18 05:46:39;;;;;;;5.53;3.10;;;20.40;99.90;;;;;;4977636;28;20452;-77
2023/08/18 05:49:04;;;;;;;5.75;3.20;;;20.50;99.90;;;;;;4962062;28;20361;-76
2023/08/18 05:51:30;;;;;;;7.13;3.47;;;20.50;99.90;;;;;;4961315;28;20038;-76
2023/08/18 05:54:03;;;;;;;7.35;4.00;;;20.60;99.90;;;;;;4982730;28;20366;-75
2023/08/18 05:56:35;;;;;;;5.72;3.42;;;20.70;99.90;;;;;;4985538;28;20022;-75
2023/08/18 05:59:10;;;;;;;9.30;4.47;;;20.70;99.90;;;;;;4988122;28;20026;-74
2023/08/18 06:01:36;;;;;;;8.52;4.32;;;20.80;99.90;;;;;;4988445;28;20014;-75
2023/08/18 06:04:01;;;;;;;7.00;3.70;;;20.80;99.90;;;;;;4992828;28;20669;-75
2023/08/18 06:06:27;;;;;;;10.75;4.32;;;20.80;99.90;;;;;;4996994;28;20057;-75
2023/08/18 06:08:55;;;;;;;15.05;4.60;;;20.90;99.90;;;;;;4973717;28;20034;-75
2023/08/18 06:11:22;;;;;;;9.35;4.10;;;20.90;99.90;;;;;;4983726;28;20104;-75
2023/08/18 06:13:50;;;;;;;10.60;3.90;;;21.00;99.90;;;;;;5000100;28;20140;-75
2023/08/18 06:16:16;;;;;;;7.60;3.45;;;21.00;99.90;;;;;;5002679;28;20057;-75
2023/08/18 06:18:44;;;;;;;5.55;2.90;;;21.00;99.90;;;;;;4993735;28;20119;-76
2023/08/18 06:21:13;;;;;;;4.45;3.00;;;21.00;99.90;;;;;;5011502;28;20026;-76
2023/08/18 06:23:42;;;;;;;5.75;2.85;;;21.10;99.90;;;;;;4993695;28;20030;-75
2023/08/18 06:26:11;;;;;;;5.20;3.25;;;21.10;99.90;;;;;;4968134;28;20125;-75
2023/08/18 06:28:36;;;;;;;5.15;3.50;;;21.10;99.90;;;;;;4968273;28;20026;-75
2023/08/18 06:31:06;;;;;;;4.13;2.97;;;21.10;99.90;;;;;;4998669;28;20030;-75
2023/08/18 06:33:35;;;;;;;5.18;3.15;;;21.10;99.90;;;;;;4985607;28;20030;-75
2023/08/18 06:36:10;;;;;;;7.93;3.78;;;21.20;99.90;;;;;;4973952;28;20058;-75
2023/08/18 06:38:36;;;;;;;7.53;3.40;;;21.20;99.90;;;;;;4997078;28;20460;-75
2023/08/18 06:41:09;;;;;;;12.75;3.63;;;21.30;99.90;;;;;;4994429;28;20097;-75
2023/08/18 06:43:34;;;;;;;7.88;3.92;;;21.30;99.90;;;;;;4979014;28;20037;-75
2023/08/18 06:46:00;;;;;;;4.75;3.72;;;21.30;99.90;;;;;;4990809;28;20037;-75
2023/08/18 06:48:26;;;;;;;7.43;3.75;;;21.40;99.90;;;;;;4985909;28;20026;-75
2023/08/18 06:50:51;;;;;;;6.13;3.30;;;21.40;99.90;;;;;;4975612;28;20029;-75
2023/08/18 07:20:14;;;;;;;5.55;3.17;;;21.90;99.90;;;;;;4960187;28;20124;-75
2023/08/18 07:22:40;;;;;;;7.10;3.33;;;21.90;99.90;;;;;;4959349;28;20493;-76
2023/08/18 07:25:06;;;;;;;6.82;3.58;;;22.00;99.90;;;;;;4993116;23;20047;-72
2023/08/18 07:27:32;;;;;;;6.45;3.63;;;22.00;99.90;;;;;;4976189;28;20026;-74
2023/08/18 07:30:01;;;;;;;6.32;3.30;;;22.10;99.90;;;;;;4975807;28;20023;-73
2023/08/18 07:32:26;;;;;;;5.85;3.28;;;22.20;99.90;;;;;;4976451;28;20033;-76
2023/08/18 07:34:52;;;;;;;8.55;4.30;;;22.20;99.90;;;;;;4977564;28;20396;-73
2023/08/18 07:37:18;;;;;;;4.40;3.55;;;22.30;99.90;;;;;;4975612;28;20034;-73
2023/08/18 07:39:43;;;;;;;9.52;3.70;;;22.30;99.90;;;;;;4977163;28;20031;-73
2023/08/18 07:42:09;;;;;;;4.07;2.92;;;22.40;99.90;;;;;;4971863;28;20058;-74
2023/08/18 07:44:34;;;;;;;9.52;3.95;;;22.50;99.90;;;;;;4973615;28;20075;-71
2023/08/18 07:47:00;;;;;;;6.55;2.97;;;22.60;99.90;;;;;;4966438;28;20155;-74
2023/08/18 07:49:26;;;;;;;4.43;2.60;;;22.70;99.90;;;;;;4970352;28;20023;-72
2023/08/18 07:51:51;;;;;;;4.30;2.78;;;22.70;99.90;;;;;;4972701;28;20027;-71
2023/08/18 07:54:17;;;;;;;5.10;2.67;;;22.80;99.90;;;;;;4950119;28;20619;-73
2023/08/18 07:56:43;;;;;;;7.10;3.00;;;22.90;99.90;;;;;;4967498;28;20026;-72
2023/08/18 07:59:09;;;;;;;4.15;2.78;;;23.00;99.90;;;;;;4965550;28;20126;-72
2023/08/18 08:01:35;;;;;;;6.45;3.13;;;23.00;99.90;;;;;;4958093;28;20288;-72
2023/08/18 08:04:00;;;;;;;5.97;2.60;;;23.00;99.90;;;;;;4959389;28;20505;-72
2023/08/18 08:06:26;;;;;;;5.18;2.40;;;23.10;99.90;;;;;;4960872;28;20027;-72
2023/08/18 08:08:51;;;;;;;6.47;2.78;;;23.20;99.90;;;;;;4963607;28;20089;-73
2023/08/18 08:11:17;;;;;;;4.68;2.40;;;23.30;99.90;;;;;;4958815;28;20030;-73
2023/08/18 08:13:44;;;;;;;5.85;2.85;;;23.30;99.90;;;;;;4970314;28;20062;-72
2023/08/18 08:16:09;;;;;;;4.65;2.95;;;23.40;99.90;;;;;;4961910;28;20622;-73
2023/08/18 08:18:36;;;;;;;6.15;2.95;;;23.50;99.90;;;;;;4967491;28;20031;-74
2023/08/18 08:21:01;;;;;;;7.07;2.78;;;23.60;99.90;;;;;;4964233;28;20046;-75
2023/08/18 08:23:27;;;;;;;5.95;2.72;;;23.70;99.90;;;;;;4968885;28;20065;-73
2023/08/18 08:25:52;;;;;;;5.05;2.92;;;23.70;99.90;;;;;;4963186;28;20151;-72
2023/08/18 08:28:18;;;;;;;7.40;2.92;;;23.80;99.90;;;;;;4961747;28;20027;-74
2023/08/18 08:30:44;;;;;;;7.03;2.67;;;23.80;99.90;;;;;;4966435;28;20031;-73
2023/08/18 08:33:11;;;;;;;6.00;2.95;;;23.90;99.90;;;;;;4961754;28;20023;-73
2023/08/18 08:35:36;;;;;;;8.00;2.45;;;24.00;99.90;;;;;;4964876;28;20136;-74
2023/08/18 08:38:02;;;;;;;7.18;2.88;;;24.00;99.90;;;;;;4970093;28;20066;-77
2023/08/18 08:40:28;;;;;;;5.18;2.80;;;24.10;99.90;;;;;;4969011;28;20065;-74
2023/08/18 08:42:56;;;;;;;6.65;2.75;;;24.10;99.90;;;;;;4970536;28;20543;-75
2023/08/18 08:45:25;;;;;;;5.20;2.72;;;24.20;99.90;;;;;;4960774;28;20166;-73
2023/08/18 08:47:54;;;;;;;5.88;2.63;;;24.30;99.90;;;;;;4969587;28;20042;-75
2023/08/18 08:50:21;;;;;;;3.33;2.08;;;24.30;99.90;;;;;;4968616;28;20031;-73
2023/08/18 08:52:50;;;;;;;5.32;2.85;;;24.40;99.90;;;;;;4967416;28;20222;-73
2023/08/18 08:55:20;;;;;;;10.45;2.80;;;24.40;99.90;;;;;;4964641;28;20449;-73
2023/08/18 08:57:47;;;;;;;4.88;2.45;;;24.50;99.90;;;;;;4967237;28;20529;-75
2023/08/18 09:00:14;;;;;;;5.88;2.90;;;24.60;99.90;;;;;;4964840;28;20071;-75
2023/08/18 09:02:43;;;;;;;4.78;2.70;;;24.60;99.90;;;;;;4963388;28;20046;-75
2023/08/18 09:05:10;;;;;;;5.38;2.80;;;24.70;99.90;;;;;;4965147;28;20023;-73
2023/08/18 09:07:35;;;;;;;4.45;2.55;;;24.80;99.90;;;;;;4970336;28;20067;-75
2023/08/18 09:10:01;;;;;;;8.65;2.80;;;24.80;99.90;;;;;;4963536;28;20105;-74
2023/08/18 09:12:30;;;;;;;3.13;2.30;;;24.90;99.90;;;;;;4965533;28;20434;-75
2023/08/18 09:14:56;;;;;;;4.88;2.30;;;25.00;99.90;;;;;;4962661;28;20524;-75
2023/08/18 09:17:27;;;;;;;5.15;2.72;;;25.10;99.90;;;;;;4961171;28;20055;-74
2023/08/18 09:19:57;;;;;;;8.40;2.83;;;25.10;99.90;;;;;;4967215;28;20046;-75
2023/08/18 09:22:23;;;;;;;6.15;2.38;;;25.20;99.90;;;;;;4964282;28;20512;-73
2023/08/18 09:24:52;;;;;;;7.15;2.72;;;25.30;99.90;;;;;;4966225;28;20039;-70
2023/08/18 09:27:21;;;;;;;3.60;2.50;;;25.40;99.90;;;;;;4970364;28;20114;-71
2023/08/18 09:29:47;;;;;;;7.00;2.80;;;25.50;99.90;;;;;;4969458;28;20023;-70
2023/08/18 09:32:13;;;;;;;5.13;2.72;;;25.60;99.90;;;;;;4969464;28;20011;-71
2023/08/18 09:34:43;;;;;;;3.47;2.63;;;25.70;99.90;;;;;;4973700;28;20028;-72
2023/08/18 09:37:09;;;;;;;3.90;2.70;;;25.70;99.90;;;;;;4964649;28;20393;-73
2023/08/18 09:39:38;;;;;;;5.57;2.70;;;25.80;99.90;;;;;;4967439;28;20095;-71
2023/08/18 09:42:05;;;;;;;6.10;2.63;;;25.80;99.90;;;;;;4965785;28;20054;-72
2023/08/18 09:44:32;;;;;;;3.83;2.42;;;25.90;99.90;;;;;;4965044;28;20511;-72
2023/08/18 09:46:58;;;;;;;4.60;2.85;;;25.90;99.90;;;;;;4967149;28;20024;-72
2023/08/18 09:49:25;;;;;;;4.53;2.15;;;26.00;99.90;;;;;;4968247;28;20061;-73
2023/08/18 09:51:52;;;;;;;5.72;2.33;;;26.10;99.90;;;;;;4966576;28;20027;-72
2023/08/18 09:54:20;;;;;;;4.97;2.42;;;26.20;99.90;;;;;;4968438;28;20023;-72
2023/08/18 09:56:50;;;;;;;4.47;2.45;;;26.30;99.90;;;;;;4970572;28;20128;-71
2023/08/18 09:59:19;;;;;;;3.80;2.03;;;26.30;99.90;;;;;;4964986;28;20618;-71
2023/08/18 10:01:48;;;;;;;3.47;2.35;;;26.40;99.90;;;;;;4970057;28;20019;-71
2023/08/18 10:04:14;;;;;;;6.68;2.20;;;26.50;99.90;;;;;;4972253;28;20041;-72
2023/08/18 10:06:43;;;;;;;6.63;2.17;;;26.50;99.90;;;;;;4973116;28;20025;-73
2023/08/18 10:09:10;;;;;;;5.63;2.28;;;26.60;99.90;;;;;;4973396;28;20553;-73
2023/08/18 10:11:36;;;;;;;4.90;2.15;;;26.60;99.90;;;;;;4971660;28;20469;-73
2023/08/18 10:14:03;;;;;;;5.78;2.20;;;26.70;99.90;;;;;;4968958;28;20035;-71
2023/08/18 10:16:31;;;;;;;3.05;2.00;;;26.80;99.90;;;;;;4972251;28;20026;-72
2023/08/18 10:18:57;;;;;;;4.07;2.15;;;26.90;99.90;;;;;;4972745;28;20139;-72
2023/08/18 10:21:23;;;;;;;2.85;1.77;;;26.90;99.90;;;;;;4972371;28;20106;-71
2023/08/18 10:23:49;;;;;;;4.15;1.90;;;26.90;99.90;;;;;;4971320;28;20048;-72
2023/08/18 10:26:14;;;;;;;4.28;2.00;;;27.00;99.30;;;;;;4968701;28;20027;-71
2023/08/18 10:28:40;;;;;;;3.67;2.17;;;27.10;99.30;;;;;;4973187;28;20077;-72
2023/08/18 10:31:09;;;;;;;5.00;2.08;;;27.00;99.80;;;;;;4972652;28;20027;-73
2023/08/18 10:33:39;;;;;;;5.45;2.22;;;27.10;99.20;;;;;;4975032;28;20027;-72
2023/08/18 10:36:06;;;;;;;3.95;2.17;;;27.10;98.80;;;;;;4971498;28;20042;-72
2023/08/18 10:38:39;;;;;;;2.88;1.75;;;27.20;98.50;;;;;;4971539;28;20023;-72
2023/08/18 10:41:04;;;;;;;5.55;2.08;;;27.30;98.70;;;;;;4972253;28;20462;-72
2023/08/18 10:43:42;;;;;;;3.50;2.03;;;27.40;97.40;;;;;;4971030;28;20046;-72
2023/08/18 10:46:12;;;;;;;3.50;1.75;;;27.40;97.90;;;;;;4963454;28;20031;-72
2023/08/18 10:48:38;;;;;;;4.13;2.00;;;27.50;96.60;;;;;;4968374;28;20474;-73
2023/08/18 10:51:03;;;;;;;1.92;1.70;;;27.50;97.20;;;;;;4969932;28;20058;-71
2023/08/18 10:53:33;;;;;;;4.32;1.70;;;27.50;97.00;;;;;;4971929;28;20062;-71
2023/08/18 10:55:59;;;;;;;3.13;1.52;;;27.50;97.30;;;;;;4957057;28;20059;-71
2023/08/18 10:58:25;;;;;;;5.40;1.90;;;27.60;94.60;;;;;;4965041;28;20031;-71
2023/08/18 11:00:51;;;;;;;5.70;1.83;;;27.60;94.30;;;;;;4972378;28;20035;-71
2023/08/18 11:03:18;;;;;;;4.88;1.85;;;27.70;94.60;;;;;;4969804;28;20027;-72
2023/08/18 11:05:44;;;;;;;3.75;1.90;;;27.70;94.30;;;;;;4971338;28;20023;-72
2023/08/18 11:08:10;;;;;;;7.22;2.08;;;27.90;92.90;;;;;;4970902;28;20484;-72
2023/08/18 11:10:40;;;;;;;4.10;2.20;;;27.90;93.00;;;;;;4969349;28;20100;-71
2023/08/18 11:13:10;;;;;;;3.45;1.65;;;28.00;93.50;;;;;;4965146;28;20519;-73
2023/08/18 11:15:35;;;;;;;3.58;1.70;;;28.00;94.30;;;;;;4963625;28;20078;-71
2023/08/18 11:18:01;;;;;;;5.43;1.75;;;27.90;94.50;;;;;;4963897;28;20486;-71
2023/08/18 11:20:26;;;;;;;2.55;1.73;;;27.90;93.70;;;;;;4969067;28;20119;-71
2023/08/18 11:22:52;;;;;;;5.40;1.88;;;28.00;91.40;;;;;;4971897;28;20485;-72
2023/08/18 11:25:22;;;;;;;5.78;1.48;;;28.00;92.20;;;;;;4969172;28;20082;-72
2023/08/18 11:27:51;;;;;;;4.00;1.80;;;28.00;92.00;;;;;;4970974;28;20023;-72
2023/08/18 11:30:16;;;;;;;3.40;2.50;;;28.00;91.00;;;;;;4966550;28;20073;-73
2023/08/18 11:32:44;;;;;;;8.70;1.85;;;28.00;92.30;;;;;;4968087;28;20026;-71
2023/08/18 11:35:14;;;;;;;2.42;1.83;;;28.00;92.60;;;;;;4966583;28;20034;-70
2023/08/18 11:37:44;;;;;;;4.82;1.60;;;28.00;91.90;;;;;;4969809;28;20034;-70
2023/08/18 11:40:14;;;;;;;6.80;1.80;;;28.00;90.80;;;;;;4971603;28;20030;-70
2023/08/18 11:42:41;;;;;;;4.18;1.92;;;28.10;90.60;;;;;;4975222;28;20023;-71
2023/08/18 11:45:16;;;;;;;5.00;1.73;;;28.10;91.00;;;;;;4970154;28;20481;-70
2023/08/18 11:47:46;;;;;;;4.72;1.70;;;28.20;91.00;;;;;;4974855;28;20034;-71
2023/08/18 11:50:19;;;;;;;4.88;2.50;;;28.20;90.80;;;;;;4972546;28;20573;-71
2023/08/18 11:52:46;;;;;;;2.88;1.55;;;28.30;89.80;;;;;;4971757;28;20026;-70
2023/08/18 11:55:13;;;;;;;2.42;1.60;;;28.30;90.20;;;;;;4973113;28;20038;-70
2023/08/18 11:57:44;;;;;;;6.15;1.70;;;28.30;89.40;;;;;;4969960;28;20023;-71
2023/08/18 12:00:15;;;;;;;5.53;2.10;;;28.40;88.80;;;;;;4968616;28;20109;-70
2023/08/18 12:02:46;;;;;;;3.70;1.85;;;28.30;87.80;;;;;;4974268;28;20045;-70
2023/08/18 12:05:28;;;;;;;3.97;1.80;;;28.40;89.40;;;;;;4973950;28;20293;-71
2023/08/18 12:08:04;;;;;;;5.43;1.63;;;28.30;87.50;;;;;;4973952;28;20023;-71
2023/08/18 12:10:33;;;;;;;4.72;2.03;;;28.30;87.70;;;;;;4970669;28;20023;-71
2023/08/18 12:12:59;;;;;;;3.45;1.90;;;28.40;86.90;;;;;;4967840;28;20023;-71
2023/08/18 12:15:26;;;;;;;2.70;1.25;;;28.40;87.00;;;;;;4968798;28;20386;-71
2023/08/18 12:17:53;;;;;;;4.68;1.77;;;28.60;87.30;;;;;;4975641;28;20367;-71
2023/08/18 12:20:21;;;;;;;6.03;1.80;;;28.50;87.70;;;;;;4967566;28;20117;-71
2023/08/18 12:22:51;;;;;;;7.25;2.40;;;28.40;88.40;;;;;;4970505;28;20034;-71
2023/08/18 12:25:18;;;;;;;5.93;1.98;;;28.40;89.30;;;;;;4974585;28;20039;-71
2023/08/18 12:27:45;;;;;;;3.28;1.90;;;28.30;87.60;;;;;;4977151;28;20018;-71
2023/08/18 12:30:11;;;;;;;5.90;1.58;;;28.30;87.00;;;;;;4971376;28;20027;-72
2023/08/18 12:32:37;;;;;;;7.13;2.10;;;28.30;88.30;;;;;;4975145;28;20106;-71
2023/08/18 12:35:03;;;;;;;6.20;2.03;;;28.30;86.30;;;;;;4975047;28;20066;-71
2023/08/18 12:37:29;;;;;;;4.30;2.15;;;28.30;87.30;;;;;;4974729;28;20023;-72
2023/08/18 12:39:55;;;;;;;4.57;2.22;;;28.20;87.80;;;;;;4986736;28;20445;-74
2023/08/18 12:42:23;;;;;;;5.65;2.10;;;28.40;85.20;;;;;;4971102;28;20474;-72
2023/08/18 12:44:49;;;;;;;7.65;2.33;;;28.60;84.60;;;;;;4972585;28;20389;-73
2023/08/18 12:47:15;;;;;;;4.65;1.83;;;28.80;84.80;;;;;;4975022;28;20011;-74
2023/08/18 12:49:41;;;;;;;3.90;1.92;;;29.00;85.20;;;;;;4974219;28;20030;-74
2023/08/18 12:52:06;;;;;;;4.80;1.90;;;29.00;84.90;;;;;;4974254;28;20018;-74
2023/08/18 12:54:32;;;;;;;6.05;2.20;;;29.10;84.20;;;;;;4972492;28;20029;-73
2023/08/18 12:56:57;;;;;;;7.35;1.90;;;29.20;83.80;;;;;;4973009;28;20031;-73
2023/08/18 12:59:23;;;;;;;4.60;2.10;;;29.30;82.90;;;;;;4975095;28;20023;-74
2023/08/18 13:01:50;;;;;;;4.88;2.15;;;29.30;83.10;;;;;;4971169;28;20037;-73
2023/08/18 13:04:16;;;;;;;8.38;2.90;;;29.30;82.80;;;;;;4973860;28;20027;-73
2023/08/18 13:06:42;;;;;;;4.47;2.50;;;29.30;82.20;;;;;;4974670;28;20553;-74
2023/08/18 13:09:10;;;;;;;7.13;2.25;;;29.40;81.90;;;;;;4970338;28;20023;-73
2023/08/18 13:11:39;;;;;;;6.45;1.88;;;29.40;82.00;;;;;;4972668;28;20091;-73
2023/08/18 13:14:04;;;;;;;5.32;2.15;;;29.40;81.40;;;;;;4970019;28;20498;-74
2023/08/18 13:16:30;;;;;;;4.75;2.35;;;29.50;80.70;;;;;;4972788;28;20062;-74